createdAt,value
2023-12-23T00:06:33.040Z,97.8
2023-12-23T00:16:33.021Z,97.8
2023-12-23T00:26:32.994Z,97.8
2023-12-23T00:36:32.947Z,97.8
2023-12-23T00:46:32.930Z,97.8
2023-12-23T00:56:32.888Z,97.8
2023-12-23T01:06:32.858Z,97.8
2023-12-23T01:16:32.831Z,97.8
2023-12-23T01:26:32.809Z,97.8
2023-12-23T01:36:32.784Z,97.8
2023-12-23T01:46:32.735Z,97.8
2023-12-23T01:56:32.703Z,97.8
2023-12-23T02:06:32.679Z,97.8
2023-12-23T02:16:32.647Z,97.8
2023-12-23T02:26:32.620Z,98
2023-12-23T02:36:32.581Z,98
2023-12-23T02:46:32.554Z,98
2023-12-23T02:56:32.524Z,98
2023-12-23T03:06:32.495Z,98
2023-12-23T03:16:32.462Z,98
2023-12-23T03:26:32.440Z,98
2023-12-23T03:36:32.400Z,98
2023-12-23T03:46:32.368Z,98.2
2023-12-23T03:56:32.357Z,98.2
2023-12-23T04:06:32.312Z,98.2
2023-12-23T04:16:32.289Z,98.2
2023-12-23T04:26:32.254Z,98.2
2023-12-23T04:36:32.235Z,98.2
2023-12-23T04:46:32.186Z,98.2
2023-12-23T04:56:32.157Z,98.2
2023-12-23T05:06:32.133Z,98.2
2023-12-23T05:16:32.108Z,98
2023-12-23T05:26:32.075Z,98
2023-12-23T05:36:32.040Z,98
2023-12-23T05:46:32.017Z,98
2023-12-23T05:56:32.004Z,98
2023-12-23T06:06:31.952Z,98
2023-12-23T06:16:31.932Z,98
2023-12-23T06:26:31.890Z,98
2023-12-23T06:36:31.860Z,98
2023-12-23T06:46:31.871Z,98
2023-12-23T06:56:31.800Z,98
2023-12-23T07:06:31.779Z,98
2023-12-23T07:16:31.779Z,98
2023-12-23T07:26:31.706Z,98
2023-12-23T07:36:31.685Z,98
2023-12-23T07:46:31.644Z,98
2023-12-23T07:56:31.635Z,98
2023-12-23T08:06:31.591Z,98
2023-12-23T08:16:31.557Z,98
2023-12-23T08:26:31.522Z,98
2023-12-23T08:36:31.496Z,98
2023-12-23T08:46:31.454Z,98
2023-12-23T08:56:31.434Z,98
2023-12-23T09:06:31.399Z,98
2023-12-23T09:16:31.356Z,98
2023-12-23T09:26:31.358Z,98
2023-12-23T09:36:31.301Z,98
2023-12-23T09:46:31.285Z,98
2023-12-23T09:56:31.249Z,98
2023-12-23T10:06:31.226Z,98
2023-12-23T10:16:31.201Z,98
2023-12-23T10:26:31.164Z,98
2023-12-23T10:36:31.129Z,98
2023-12-23T10:46:31.103Z,98
2023-12-23T10:56:31.059Z,98
2023-12-23T11:06:31.075Z,98
2023-12-23T11:16:30.999Z,98
2023-12-23T11:26:30.962Z,98
2023-12-23T11:36:30.935Z,98
2023-12-23T11:46:30.901Z,98
2023-12-23T11:56:30.877Z,98
2023-12-23T12:06:30.863Z,98
2023-12-23T12:16:30.706Z,98
2023-12-23T12:26:30.789Z,98
2023-12-23T12:36:30.764Z,98
2023-12-23T12:46:30.729Z,97.8
2023-12-23T12:56:30.691Z,97.8
2023-12-23T13:06:30.657Z,97.8
2023-12-23T13:16:30.651Z,97.8
2023-12-23T13:26:30.600Z,97.6
2023-12-23T13:36:30.572Z,97.6
2023-12-23T13:46:30.531Z,97.6
2023-12-23T13:56:30.509Z,97.4
2023-12-23T14:06:30.478Z,97.4
2023-12-23T14:16:30.435Z,97.4
2023-12-23T14:26:30.425Z,97.4
2023-12-23T14:36:30.384Z,97.4
2023-12-23T14:46:30.357Z,97.4
2023-12-23T14:56:30.314Z,97.6
2023-12-23T15:06:30.279Z,97.6
2023-12-23T15:16:30.260Z,97.6
2023-12-23T15:26:30.214Z,97.6
2023-12-23T15:36:30.175Z,97.8
2023-12-23T15:46:30.151Z,97.6
2023-12-23T15:56:30.119Z,97.4
2023-12-23T16:06:30.092Z,97
2023-12-23T16:26:30.026Z,96
2023-12-23T16:36:29.987Z,95.2
2023-12-23T16:46:30.007Z,94.4
2023-12-23T16:56:29.931Z,93
2023-12-23T17:06:29.912Z,91.6
2023-12-23T17:16:29.870Z,91.4
2023-12-23T17:26:29.828Z,91.4
2023-12-23T17:36:29.812Z,90.8
2023-12-23T17:46:29.767Z,89.6
2023-12-23T17:56:29.740Z,89.2
2023-12-23T18:06:29.724Z,88.8
2023-12-23T18:16:29.684Z,88.6
2023-12-23T18:26:29.658Z,89
2023-12-23T18:36:29.614Z,89.2
2023-12-23T18:46:29.570Z,89.2
2023-12-23T18:56:29.548Z,88.6
2023-12-23T19:06:29.518Z,88.6
2023-12-23T19:16:29.482Z,88.2
2023-12-23T19:26:29.445Z,87.2
2023-12-23T19:36:29.423Z,87.2
2023-12-23T19:46:29.384Z,86.8
2023-12-23T19:56:29.343Z,86.6
2023-12-23T20:06:29.312Z,86.4
2023-12-23T20:16:29.281Z,85.4
2023-12-23T20:26:29.253Z,84.8
2023-12-23T20:36:29.210Z,84
2023-12-23T20:46:29.185Z,83.8
2023-12-23T20:56:29.144Z,84.2
2023-12-23T21:06:29.117Z,84
2023-12-23T21:16:29.076Z,83.8
2023-12-23T21:26:29.061Z,83.4
2023-12-23T21:36:29.013Z,82.8
2023-12-23T21:46:28.985Z,82.4
2023-12-23T21:56:28.948Z,82.8
2023-12-23T22:06:28.908Z,82.8
2023-12-23T22:16:28.913Z,82
2023-12-23T22:26:28.839Z,83.2
2023-12-23T22:36:28.807Z,83.4
2023-12-23T22:46:28.772Z,84
2023-12-23T22:56:28.889Z,84.4
2023-12-23T23:06:28.697Z,84.6
2023-12-23T23:16:28.654Z,84.6
2023-12-23T23:26:28.666Z,84.4
2023-12-23T23:36:28.596Z,84.4
2023-12-23T23:46:28.601Z,83.6
2023-12-23T23:56:28.536Z,83.6
